Terminal Aerodrome Forecast
Issued by NWS Sioux Falls, SD

Home | Current Version | Previous Version | Graphics & Text | Print | Product List | Glossary Off
Versions: 1 2 3 4 5 6 7 8 9 10 11 12 13 14 15 16 17

000
FTUS43 KFSD 192324
TAFSUX
TAF
KSUX 192324Z 2000/2024 14007KT 1SM BR OVC002
     FM200300 13007KT 1/2SM -DZ FG OVC003
     FM201500 14009KT 1SM BR OVC003
     FM202100 12007KT 4SM -DZ OVC008=

USA.gov is the U.S. government's official web portal to all federal, state and local government web resources and services.